Terminal Aerodrome Forecast
Issued by NWS

Home | Current Version | Previous Version | Text Only | Print | Product List | Glossary On
Versions: 1 2 3 4 5 6 7 8 9 10 11 12 13 14 15 16 17 18 19 20 21 22 23 24 25 26 27 28 29 30 31 32 33
917
FTUS46 KMTR 220620 AAA
TAFSFO
TAF AMD
KSFO 220620Z 2206/2312 15018G25KT P6SM -RA OVC025 WS020/19040KT
     FM220800 17030G40KT 3SM RA OVC025 WS020/19060KT
     FM221100 17020G30KT 5SM SHRA BKN020 OVC030
     FM221500 21013KT 6SM -SHRA OVC040
     FM221800 21010KT P6SM VCSH SCT040 BKN060
     FM222100 22015G25KT P6SM -SHRA VCTS OVC050CB
     FM230300 23012KT P6SM BKN050=

USA.gov is the U.S. government's official web portal to all federal, state and local government web resources and services.